createdAt,value
2019-02-26T00:00:10.269Z,100.00
2019-02-26T00:02:46.538Z,100.00
2019-02-26T00:05:12.530Z,100.00
2019-02-26T00:07:39.736Z,100.00
2019-02-26T00:10:09.098Z,100.00
2019-02-26T00:12:36.595Z,100.00
2019-02-26T00:15:04.734Z,100.00
2019-02-26T00:17:36.230Z,100.00
2019-02-26T00:20:01.114Z,100.00
2019-02-26T00:22:30.005Z,100.00
2019-02-26T00:25:01.003Z,100.00
2019-02-26T00:27:30.430Z,100.00
2019-02-26T00:29:58.337Z,100.00
2019-02-26T00:32:25.406Z,100.00
2019-02-26T00:34:53.141Z,100.00
2019-02-26T00:37:24.222Z,100.00
2019-02-26T00:39:52.281Z,100.00
2019-02-26T00:42:23.645Z,100.00
2019-02-26T00:44:51.484Z,100.00
2019-02-26T00:47:19.250Z,100.00
2019-02-26T00:49:48.400Z,100.00
2019-02-26T00:52:15.710Z,100.00
2019-02-26T00:54:42.904Z,100.00
2019-02-26T00:57:11.532Z,100.00
2019-02-26T00:59:41.241Z,100.00
2019-02-26T01:02:08.241Z,100.00
2019-02-26T01:04:35.401Z,100.00
2019-02-26T01:07:03.697Z,100.00
2019-02-26T01:09:33.969Z,100.00
2019-02-26T01:12:01.415Z,100.00
2019-02-26T01:14:29.330Z,100.00
2019-02-26T01:16:56.004Z,100.00
2019-02-26T01:19:22.714Z,100.00
2019-02-26T01:21:49.638Z,100.00
2019-02-26T01:24:16.418Z,100.00
2019-02-26T01:26:43.964Z,100.00
2019-02-26T01:29:16.008Z,100.00
2019-02-26T01:31:41.354Z,100.00
2019-02-26T01:34:11.486Z,100.00
2019-02-26T01:36:40.252Z,100.00
2019-02-26T01:39:09.671Z,100.00
2019-02-26T01:41:41.340Z,100.00
2019-02-26T01:44:08.835Z,100.00
2019-02-26T01:46:36.593Z,100.00
2019-02-26T01:49:23.747Z,100.00
2019-02-26T01:51:53.851Z,100.00
2019-02-26T01:54:20.866Z,100.00
2019-02-26T01:56:47.947Z,100.00
2019-02-26T01:59:18.162Z,100.00
2019-02-26T02:01:44.710Z,100.00
2019-02-26T02:04:13.234Z,100.00
2019-02-26T02:06:41.751Z,100.00
2019-02-26T02:09:11.320Z,100.00
2019-02-26T02:11:40.740Z,100.00
2019-02-26T02:14:10.344Z,100.00
2019-02-26T02:16:38.510Z,100.00
2019-02-26T02:19:05.980Z,100.00
2019-02-26T02:21:35.515Z,100.00
2019-02-26T02:24:02.155Z,100.00
2019-02-26T02:26:29.910Z,100.00
2019-02-26T02:28:57.128Z,100.00
2019-02-26T02:31:26.778Z,100.00
2019-02-26T02:33:54.112Z,100.00
2019-02-26T02:36:23.672Z,100.00
2019-02-26T02:38:55.959Z,100.00
2019-02-26T02:41:22.919Z,100.00
2019-02-26T02:43:50.498Z,100.00
2019-02-26T02:46:17.629Z,100.00
2019-02-26T02:48:44.301Z,100.00
2019-02-26T02:51:13.776Z,100.00
2019-02-26T02:53:40.542Z,100.00
2019-02-26T02:56:09.861Z,100.00
2019-02-26T02:58:38.617Z,100.00
2019-02-26T03:01:05.770Z,100.00
2019-02-26T03:03:33.605Z,100.00
2019-02-26T03:06:04.351Z,100.00
2019-02-26T03:08:29.787Z,100.00
2019-02-26T03:10:57.025Z,100.00
2019-02-26T03:13:45.646Z,100.00
2019-02-26T03:16:13.437Z,100.00
2019-02-26T03:18:42.131Z,100.00
2019-02-26T03:21:09.623Z,100.00
2019-02-26T03:23:38.009Z,100.00
2019-02-26T03:26:05.236Z,100.00
2019-02-26T03:28:34.798Z,100.00
2019-02-26T03:31:00.717Z,100.00
2019-02-26T03:33:28.216Z,100.00
2019-02-26T03:35:55.129Z,100.00
2019-02-26T03:38:23.400Z,100.00
2019-02-26T03:40:51.918Z,100.00
2019-02-26T03:43:20.154Z,100.00
2019-02-26T03:45:48.220Z,100.00
2019-02-26T03:48:19.262Z,100.00
2019-02-26T03:50:45.422Z,100.00
2019-02-26T03:53:12.757Z,100.00
2019-02-26T03:55:42.020Z,100.00
2019-02-26T03:58:08.802Z,100.00
2019-02-26T04:00:53.462Z,100.00
2019-02-26T04:03:20.777Z,100.00
2019-02-26T04:05:47.445Z,100.00
2019-02-26T04:08:16.657Z,100.00
2019-02-26T04:10:47.219Z,100.00
2019-02-26T04:13:12.270Z,100.00
2019-02-26T04:15:40.674Z,100.00
2019-02-26T04:18:07.439Z,100.00
2019-02-26T04:20:35.474Z,100.00
2019-02-26T04:23:03.233Z,100.00
2019-02-26T04:25:36.435Z,100.00
2019-02-26T04:29:03.820Z,100.00
2019-02-26T04:32:09.141Z,100.00
2019-02-26T04:35:02.991Z,100.00
2019-02-26T04:38:18.255Z,100.00
2019-02-26T04:41:20.928Z,100.00
2019-02-26T04:44:34.225Z,100.00
2019-02-26T04:47:06.371Z,100.00
2019-02-26T04:49:36.061Z,100.00
2019-02-26T04:52:04.994Z,100.00
2019-02-26T04:54:56.646Z,100.00
2019-02-26T04:57:25.699Z,100.00
2019-02-26T04:59:55.663Z,100.00
2019-02-26T05:02:24.115Z,100.00
2019-02-26T05:04:50.892Z,100.00
2019-02-26T05:07:19.416Z,100.00
2019-02-26T05:09:47.519Z,100.00
2019-02-26T05:12:15.445Z,100.00
2019-02-26T05:14:43.345Z,100.00
2019-02-26T05:17:10.576Z,100.00
2019-02-26T05:20:07.186Z,100.00
2019-02-26T05:22:35.022Z,100.00
2019-02-26T05:25:04.737Z,100.00
2019-02-26T05:27:32.303Z,100.00
2019-02-26T05:29:58.974Z,100.00
2019-02-26T05:32:27.728Z,100.00
2019-02-26T05:34:55.018Z,100.00
2019-02-26T05:37:21.690Z,100.00
2019-02-26T05:39:49.054Z,100.00
2019-02-26T05:42:17.493Z,100.00
2019-02-26T05:44:44.969Z,100.00
2019-02-26T05:47:13.236Z,100.00
2019-02-26T05:49:43.294Z,100.00
2019-02-26T05:52:24.095Z,100.00
2019-02-26T05:54:59.194Z,100.00
2019-02-26T05:57:32.347Z,100.00
2019-02-26T05:59:55.145Z,100.00
2019-02-26T06:02:24.430Z,100.00
2019-02-26T06:04:51.227Z,100.00
2019-02-26T06:07:21.715Z,100.00
2019-02-26T06:09:48.390Z,100.00
2019-02-26T06:12:16.037Z,100.00
2019-02-26T06:14:44.033Z,100.00
2019-02-26T06:17:13.191Z,100.00
2019-02-26T06:19:47.558Z,100.00
2019-02-26T06:22:18.217Z,100.00
2019-02-26T06:24:44.435Z,100.00
2019-02-26T06:27:15.388Z,100.00
2019-02-26T06:29:40.449Z,100.00
2019-02-26T06:32:10.110Z,100.00
2019-02-26T06:34:39.761Z,100.00
2019-02-26T06:37:18.104Z,100.00
2019-02-26T06:39:45.387Z,100.00
2019-02-26T06:42:14.426Z,100.00
2019-02-26T06:44:43.762Z,100.00
2019-02-26T06:47:12.610Z,100.00
2019-02-26T06:49:40.936Z,100.00
2019-02-26T06:52:08.378Z,100.00
2019-02-26T06:54:37.005Z,100.00
2019-02-26T06:57:03.706Z,100.00
2019-02-26T06:59:34.231Z,100.00
2019-02-26T07:02:00.830Z,100.00
2019-02-26T07:04:36.390Z,100.00
2019-02-26T07:07:04.412Z,100.00
2019-02-26T07:09:34.513Z,100.00
2019-02-26T07:12:01.603Z,100.00
2019-02-26T07:14:30.254Z,100.00
2019-02-26T07:16:59.188Z,100.00
2019-02-26T07:19:28.261Z,100.00
2019-02-26T07:22:02.114Z,100.00
2019-02-26T07:24:29.075Z,100.00
2019-02-26T07:26:56.993Z,100.00
2019-02-26T07:29:24.025Z,100.00
2019-02-26T07:31:51.871Z,100.00
2019-02-26T07:34:20.527Z,100.00
2019-02-26T07:36:50.712Z,100.00
2019-02-26T07:39:25.568Z,100.00
2019-02-26T07:41:54.252Z,100.00
2019-02-26T07:44:21.713Z,100.00
2019-02-26T07:46:50.561Z,100.00
2019-02-26T07:49:19.835Z,100.00
2019-02-26T07:51:46.701Z,100.00
2019-02-26T07:54:14.524Z,100.00
2019-02-26T07:56:41.527Z,100.00
2019-02-26T07:59:09.960Z,100.00
2019-02-26T08:01:39.900Z,100.00
2019-02-26T08:04:10.683Z,100.00
2019-02-26T08:06:38.479Z,100.00
2019-02-26T08:09:09.142Z,100.00
2019-02-26T08:11:36.804Z,100.00
2019-02-26T08:14:06.253Z,100.00
2019-02-26T08:16:35.007Z,100.00
2019-02-26T08:19:02.384Z,100.00
2019-02-26T08:21:30.947Z,100.00
2019-02-26T08:24:10.614Z,100.00
2019-02-26T08:26:40.378Z,100.00
2019-02-26T08:29:09.709Z,100.00
2019-02-26T08:31:36.721Z,100.00
2019-02-26T08:34:23.861Z,100.00
2019-02-26T08:36:50.618Z,100.00
2019-02-26T08:39:17.861Z,100.00
2019-02-26T08:42:05.164Z,100.00
2019-02-26T08:44:32.327Z,100.00
2019-02-26T08:46:59.001Z,100.00
2019-02-26T08:49:27.074Z,100.00
2019-02-26T08:51:54.151Z,100.00
2019-02-26T08:54:24.286Z,100.00
2019-02-26T08:56:51.624Z,100.00
2019-02-26T08:59:20.222Z,100.00
2019-02-26T09:01:47.378Z,100.00
2019-02-26T09:04:14.562Z,100.00
2019-02-26T09:06:42.938Z,100.00
2019-02-26T09:09:11.850Z,100.00
2019-02-26T09:11:42.841Z,100.00
2019-02-26T09:14:11.520Z,100.00
2019-02-26T09:16:47.683Z,100.00
2019-02-26T09:19:14.851Z,100.00
2019-02-26T09:21:45.253Z,100.00
2019-02-26T09:24:11.390Z,100.00
2019-02-26T09:26:39.170Z,100.00
2019-02-26T09:29:06.689Z,100.00
2019-02-26T09:31:34.846Z,100.00
2019-02-26T09:34:01.783Z,100.00
2019-02-26T09:39:27.023Z,100.00
2019-02-26T09:41:56.990Z,100.00
2019-02-26T09:44:26.169Z,100.00
2019-02-26T09:46:55.357Z,100.00
2019-02-26T09:49:24.616Z,100.00
2019-02-26T09:51:54.485Z,100.00
2019-02-26T09:54:22.641Z,100.00
2019-02-26T09:56:50.032Z,100.00
2019-02-26T09:59:18.100Z,100.00
2019-02-26T10:01:45.447Z,100.00
2019-02-26T10:04:12.123Z,100.00
2019-02-26T10:06:40.647Z,100.00
2019-02-26T10:09:11.294Z,100.00
2019-02-26T10:11:39.395Z,100.00
2019-02-26T10:14:08.321Z,100.00
2019-02-26T10:16:36.153Z,100.00
2019-02-26T10:19:04.099Z,100.00
2019-02-26T10:21:33.071Z,100.00
2019-02-26T10:24:02.026Z,100.00
2019-02-26T10:26:30.879Z,100.00
2019-02-26T10:29:04.317Z,100.00
2019-02-26T10:31:28.591Z,100.00
2019-02-26T10:33:55.733Z,100.00
2019-02-26T10:36:23.049Z,100.00
2019-02-26T10:38:52.634Z,100.00
2019-02-26T10:41:21.130Z,100.00
2019-02-26T10:43:48.875Z,97.03
2019-02-26T10:46:16.255Z,92.88
2019-02-26T10:48:45.653Z,93.76
2019-02-26T10:51:12.734Z,97.71
2019-02-26T10:53:39.946Z,94.60
2019-02-26T10:56:07.642Z,93.85
2019-02-26T10:58:36.088Z,94.71
2019-02-26T11:01:05.118Z,88.26
2019-02-26T11:03:37.962Z,87.40
2019-02-26T11:06:04.612Z,85.00
2019-02-26T11:08:32.798Z,85.00
2019-02-26T11:11:00.622Z,82.03
2019-02-26T11:13:27.804Z,82.03
2019-02-26T11:15:57.345Z,84.96
2019-02-26T11:18:24.740Z,84.96
2019-02-26T11:20:55.301Z,83.67
2019-02-26T11:23:30.516Z,82.22
2019-02-26T11:25:49.561Z,82.22
2019-02-26T11:28:17.050Z,82.20
2019-02-26T11:30:44.316Z,76.66
2019-02-26T11:33:13.692Z,79.96
2019-02-26T11:35:43.894Z,80.28
2019-02-26T11:38:12.340Z,76.37
2019-02-26T11:40:39.926Z,90.02
2019-02-26T11:43:11.517Z,74.23
2019-02-26T11:45:37.086Z,78.39
2019-02-26T11:48:08.129Z,89.40
2019-02-26T11:50:33.902Z,72.35
2019-02-26T11:53:01.642Z,73.18
2019-02-26T11:55:31.853Z,66.42
2019-02-26T11:57:57.817Z,66.31
2019-02-26T12:00:59.985Z,64.30
2019-02-26T12:03:30.162Z,70.23
2019-02-26T12:05:58.439Z,77.87
2019-02-26T12:08:25.927Z,62.94
2019-02-26T12:10:57.679Z,63.88
2019-02-26T12:13:24.979Z,63.24
2019-02-26T12:15:52.197Z,65.41
2019-02-26T12:18:19.999Z,57.80
2019-02-26T12:20:48.792Z,61.91
2019-02-26T12:23:19.004Z,63.80
2019-02-26T12:25:47.202Z,56.70
2019-02-26T12:28:15.739Z,55.58
2019-02-26T12:30:44.773Z,61.33
2019-02-26T12:33:14.319Z,54.20
2019-02-26T12:35:43.499Z,56.27
2019-02-26T12:38:18.029Z,54.17
2019-02-26T12:40:41.146Z,53.89
2019-02-26T12:43:11.672Z,53.22
2019-02-26T12:45:40.531Z,51.41
2019-02-26T12:48:10.129Z,51.90
2019-02-26T12:50:40.121Z,51.11
2019-02-26T12:53:11.546Z,48.78
2019-02-26T12:55:38.221Z,53.88
2019-02-26T12:58:04.400Z,51.93
2019-02-26T13:00:31.621Z,47.38
2019-02-26T13:02:59.351Z,48.30
2019-02-26T13:05:26.399Z,44.43
2019-02-26T13:07:54.258Z,42.64
2019-02-26T13:10:21.054Z,42.51
2019-02-26T13:12:52.843Z,42.96
2019-02-26T13:15:19.384Z,43.91
2019-02-26T13:17:48.914Z,44.53
2019-02-26T13:20:17.638Z,45.45
2019-02-26T13:22:45.915Z,44.39
2019-02-26T13:25:15.560Z,43.60
2019-02-26T13:27:43.659Z,45.50
2019-02-26T13:30:15.470Z,46.02
2019-02-26T13:32:55.115Z,44.92
2019-02-26T13:35:11.829Z,43.73
2019-02-26T13:37:41.933Z,42.85
2019-02-26T13:40:11.768Z,42.82
2019-02-26T13:42:39.324Z,42.39
2019-02-26T13:45:08.302Z,40.24
2019-02-26T13:47:35.655Z,39.54
2019-02-26T13:50:03.180Z,41.66
2019-02-26T13:52:30.563Z,41.66
2019-02-26T13:54:57.635Z,37.16
2019-02-26T13:57:24.646Z,37.30
2019-02-26T13:59:52.537Z,37.65
2019-02-26T14:02:19.885Z,38.39
2019-02-26T14:04:47.366Z,37.27
2019-02-26T14:07:14.577Z,36.10
2019-02-26T14:09:42.514Z,35.92
2019-02-26T14:12:09.551Z,35.96
2019-02-26T14:14:36.802Z,37.02
2019-02-26T14:17:04.056Z,38.37
2019-02-26T14:19:31.084Z,39.41
2019-02-26T14:21:58.008Z,39.50
2019-02-26T14:24:24.717Z,40.46
2019-02-26T14:26:52.621Z,40.28
2019-02-26T14:29:19.838Z,41.00
2019-02-26T14:31:47.227Z,41.91
2019-02-26T14:34:14.624Z,41.29
2019-02-26T14:36:42.159Z,41.74
2019-02-26T14:39:10.098Z,39.70
2019-02-26T14:41:37.895Z,38.36
2019-02-26T14:44:05.649Z,39.06
2019-02-26T14:46:33.118Z,39.70
2019-02-26T14:49:00.888Z,40.06
2019-02-26T14:51:27.674Z,40.72
2019-02-26T14:53:54.582Z,40.70
2019-02-26T14:56:22.328Z,41.41
2019-02-26T14:58:49.237Z,40.60
2019-02-26T15:01:16.737Z,40.23
2019-02-26T15:03:43.970Z,41.86
2019-02-26T15:06:11.625Z,41.47
2019-02-26T15:08:41.290Z,41.57
2019-02-26T15:11:08.378Z,41.85
2019-02-26T15:13:35.748Z,43.00
2019-02-26T15:16:03.406Z,43.40
2019-02-26T15:18:31.487Z,44.64
2019-02-26T15:20:58.162Z,45.85
2019-02-26T15:23:25.329Z,47.34
2019-02-26T15:25:53.963Z,48.84
2019-02-26T15:28:20.997Z,50.89
2019-02-26T15:30:47.839Z,50.73
2019-02-26T15:33:14.654Z,52.54
2019-02-26T15:35:41.570Z,52.99
2019-02-26T15:38:08.571Z,53.49
2019-02-26T15:40:36.129Z,49.90
2019-02-26T15:43:03.392Z,48.69
2019-02-26T15:45:31.053Z,48.75
2019-02-26T15:47:58.303Z,46.84
2019-02-26T15:50:25.038Z,45.71
2019-02-26T15:52:53.000Z,45.96
2019-02-26T15:55:21.594Z,46.11
2019-02-26T15:57:49.853Z,46.89
2019-02-26T16:00:18.330Z,46.37
2019-02-26T16:02:46.689Z,47.16
2019-02-26T16:05:14.056Z,47.22
2019-02-26T16:07:41.094Z,47.52
2019-02-26T16:10:08.669Z,47.84
2019-02-26T16:12:35.653Z,49.47
2019-02-26T16:15:07.950Z,47.90
2019-02-26T16:17:33.739Z,48.82
2019-02-26T16:20:00.684Z,49.44
2019-02-26T16:22:28.432Z,50.13
2019-02-26T16:24:55.798Z,51.03
2019-02-26T16:27:22.491Z,51.91
2019-02-26T16:29:51.222Z,52.21
2019-02-26T16:32:18.411Z,56.22
2019-02-26T16:34:45.805Z,56.71
2019-02-26T16:37:12.850Z,60.92
2019-02-26T16:39:40.433Z,61.09
2019-02-26T16:42:11.434Z,61.06
2019-02-26T16:44:37.447Z,64.45
2019-02-26T16:47:05.348Z,69.04
2019-02-26T16:49:33.215Z,68.48
2019-02-26T16:52:00.992Z,69.91
2019-02-26T16:54:28.429Z,77.08
2019-02-26T16:56:55.486Z,74.52
2019-02-26T16:59:22.769Z,76.84
2019-02-26T17:01:49.569Z,80.37
2019-02-26T17:04:16.819Z,73.99
2019-02-26T17:06:44.485Z,75.97
2019-02-26T17:09:11.185Z,76.74
2019-02-26T17:11:37.966Z,86.71
2019-02-26T17:14:05.218Z,74.34
2019-02-26T17:16:32.061Z,78.08
2019-02-26T17:19:00.647Z,79.57
2019-02-26T17:21:30.621Z,82.10
2019-02-26T17:23:57.614Z,84.43
2019-02-26T17:26:24.662Z,83.43
2019-02-26T17:28:51.797Z,85.07
2019-02-26T17:31:18.492Z,87.19
2019-02-26T17:33:46.720Z,87.86
2019-02-26T17:36:14.027Z,89.08
2019-02-26T17:38:41.422Z,89.08
2019-02-26T17:41:09.905Z,91.00
2019-02-26T17:43:36.782Z,92.22
2019-02-26T17:46:03.566Z,93.23
2019-02-26T17:48:31.776Z,93.06
2019-02-26T17:51:00.253Z,93.03
2019-02-26T17:53:27.920Z,93.03
2019-02-26T17:55:55.379Z,94.11
2019-02-26T17:58:22.292Z,93.37
2019-02-26T18:00:54.597Z,93.37
2019-02-26T18:03:21.709Z,93.36
2019-02-26T18:05:51.523Z,93.25
2019-02-26T18:08:19.077Z,93.91
2019-02-26T18:10:47.810Z,93.87
2019-02-26T18:13:14.617Z,95.49
2019-02-26T18:15:41.656Z,95.49
2019-02-26T18:18:08.853Z,100.00
2019-02-26T18:20:35.630Z,100.00
2019-02-26T18:23:02.909Z,100.00
2019-02-26T18:25:29.609Z,100.00
2019-02-26T18:27:59.638Z,100.00
2019-02-26T18:30:26.919Z,98.02
2019-02-26T18:32:56.423Z,97.74
2019-02-26T18:35:23.960Z,96.64
2019-02-26T18:37:51.792Z,96.64
2019-02-26T18:40:19.421Z,96.79
2019-02-26T18:42:46.978Z,98.06
2019-02-26T18:45:16.694Z,98.73
2019-02-26T18:47:45.120Z,97.77
2019-02-26T18:50:13.582Z,98.37
2019-02-26T18:52:42.058Z,97.63
2019-02-26T18:55:12.650Z,98.06
2019-02-26T18:57:43.351Z,99.38
2019-02-26T19:00:10.938Z,100.00
2019-02-26T19:02:42.157Z,99.86
2019-02-26T19:05:10.286Z,100.00
2019-02-26T19:07:38.162Z,100.00
2019-02-26T19:10:07.751Z,100.00
2019-02-26T19:12:35.498Z,100.00
2019-02-26T19:15:03.126Z,100.00
2019-02-26T19:17:30.769Z,100.00
2019-02-26T19:19:57.477Z,100.00
2019-02-26T19:22:26.642Z,100.00
2019-02-26T19:24:53.915Z,100.00
2019-02-26T19:27:21.585Z,100.00
2019-02-26T19:29:49.743Z,100.00
2019-02-26T19:32:16.864Z,100.00
2019-02-26T19:34:44.655Z,100.00
2019-02-26T19:37:12.216Z,100.00
2019-02-26T19:39:39.050Z,100.00
2019-02-26T19:42:05.989Z,100.00
2019-02-26T19:44:35.928Z,100.00
2019-02-26T19:47:03.663Z,100.00
2019-02-26T19:49:30.594Z,100.00
2019-02-26T19:51:57.703Z,100.00
2019-02-26T19:54:24.938Z,100.00
2019-02-26T19:56:52.186Z,100.00
2019-02-26T19:59:21.086Z,100.00
2019-02-26T20:01:48.177Z,100.00
2019-02-26T20:04:15.105Z,100.00
2019-02-26T20:06:42.139Z,100.00
2019-02-26T20:09:08.920Z,100.00
2019-02-26T20:11:36.218Z,100.00
2019-02-26T20:14:04.919Z,100.00
2019-02-26T20:16:33.012Z,100.00
2019-02-26T20:19:00.058Z,100.00
2019-02-26T20:21:26.877Z,100.00
2019-02-26T20:23:54.513Z,100.00
2019-02-26T20:26:21.673Z,100.00
2019-02-26T20:28:48.763Z,100.00
2019-02-26T20:31:16.122Z,100.00
2019-02-26T20:33:43.768Z,100.00
2019-02-26T20:36:10.651Z,100.00
2019-02-26T20:38:38.237Z,100.00
2019-02-26T20:41:05.096Z,100.00
2019-02-26T20:43:31.939Z,100.00
2019-02-26T20:45:59.156Z,100.00
2019-02-26T20:48:27.370Z,100.00
2019-02-26T20:50:56.652Z,100.00
2019-02-26T20:53:23.997Z,100.00
2019-02-26T20:55:52.716Z,100.00
2019-02-26T20:58:20.494Z,100.00
2019-02-26T21:00:48.266Z,100.00
2019-02-26T21:03:15.098Z,100.00
2019-02-26T21:05:44.738Z,100.00
2019-02-26T21:08:10.926Z,100.00
2019-02-26T21:10:38.123Z,100.00
2019-02-26T21:13:05.389Z,100.00
2019-02-26T21:15:32.493Z,100.00
2019-02-26T21:17:59.876Z,100.00
2019-02-26T21:20:27.991Z,100.00
2019-02-26T21:22:56.767Z,100.00
2019-02-26T21:25:23.820Z,100.00
2019-02-26T21:27:51.275Z,100.00
2019-02-26T21:30:18.191Z,100.00
2019-02-26T21:32:46.272Z,100.00
2019-02-26T21:35:13.287Z,100.00
2019-02-26T21:37:40.627Z,100.00
2019-02-26T21:40:08.017Z,100.00
2019-02-26T21:42:35.697Z,100.00
2019-02-26T21:45:03.136Z,100.00
2019-02-26T21:47:30.606Z,100.00
2019-02-26T21:49:57.482Z,100.00
2019-02-26T21:52:24.781Z,100.00
2019-02-26T21:54:52.034Z,100.00
2019-02-26T21:57:21.791Z,100.00
2019-02-26T21:59:50.146Z,100.00
2019-02-26T22:02:18.811Z,100.00
2019-02-26T22:04:46.265Z,100.00
2019-02-26T22:07:14.159Z,100.00
2019-02-26T22:09:41.163Z,100.00
2019-02-26T22:12:08.981Z,100.00
2019-02-26T22:14:36.875Z,100.00
2019-02-26T22:17:05.067Z,100.00
2019-02-26T22:19:32.310Z,100.00
2019-02-26T22:21:59.465Z,100.00
2019-02-26T22:24:26.719Z,100.00
2019-02-26T22:26:59.461Z,100.00
2019-02-26T22:29:23.888Z,100.00
2019-02-26T22:31:50.571Z,100.00
2019-02-26T22:34:19.068Z,100.00
2019-02-26T22:36:46.698Z,100.00
2019-02-26T22:39:15.399Z,100.00
2019-02-26T22:41:43.149Z,100.00
2019-02-26T22:44:10.614Z,100.00
2019-02-26T22:46:37.844Z,100.00
2019-02-26T22:49:05.195Z,100.00
2019-02-26T22:51:32.446Z,100.00
2019-02-26T22:53:59.370Z,100.00
2019-02-26T22:56:26.036Z,100.00
2019-02-26T22:58:54.242Z,100.00
2019-02-26T23:01:30.798Z,100.00
2019-02-26T23:03:58.789Z,100.00
2019-02-26T23:06:25.663Z,100.00
2019-02-26T23:08:53.471Z,100.00
2019-02-26T23:11:20.831Z,100.00
2019-02-26T23:13:48.573Z,100.00
2019-02-26T23:16:18.482Z,100.00
2019-02-26T23:18:45.263Z,100.00
2019-02-26T23:21:15.500Z,100.00
2019-02-26T23:23:42.650Z,100.00
2019-02-26T23:26:09.879Z,100.00
2019-02-26T23:28:37.600Z,100.00
2019-02-26T23:31:05.963Z,100.00
2019-02-26T23:33:33.902Z,100.00
2019-02-26T23:36:01.898Z,100.00
2019-02-26T23:38:28.810Z,100.00
2019-02-26T23:40:58.185Z,100.00
2019-02-26T23:43:24.831Z,100.00
2019-02-26T23:45:56.825Z,100.00
2019-02-26T23:48:21.745Z,100.00
2019-02-26T23:50:49.026Z,100.00
2019-02-26T23:53:15.739Z,100.00
2019-02-26T23:55:46.300Z,100.00
2019-02-26T23:58:12.338Z,100.00
